sensor_id;sensor_type;location;lat;lon;timestamp;P1;durP1;ratioP1;P2;durP2;ratioP2
76433;SDS011;65265;53.200;6.080;2023-02-28T00:03:06;4.22;;;3.65;;
76433;SDS011;65265;53.200;6.080;2023-02-28T00:07:59;4.45;;;2.47;;
76433;SDS011;65265;53.200;6.080;2023-02-28T00:12:51;2.75;;;2.55;;
76433;SDS011;65265;53.200;6.080;2023-02-28T00:17:47;4.00;;;1.85;;
76433;SDS011;65265;53.200;6.080;2023-02-28T00:22:44;4.22;;;2.65;;
76433;SDS011;65265;53.200;6.080;2023-02-28T00:27:38;5.13;;;2.35;;
76433;SDS011;65265;53.200;6.080;2023-02-28T00:32:31;2.95;;;2.67;;
76433;SDS011;65265;53.200;6.080;2023-02-28T00:37:24;3.22;;;2.13;;
76433;SDS011;65265;53.200;6.080;2023-02-28T00:42:19;2.70;;;2.53;;
76433;SDS011;65265;53.200;6.080;2023-02-28T00:47:12;3.13;;;2.63;;
76433;SDS011;65265;53.200;6.080;2023-02-28T00:52:04;4.63;;;2.40;;
76433;SDS011;65265;53.200;6.080;2023-02-28T00:56:57;2.58;;;2.10;;
76433;SDS011;65265;53.200;6.080;2023-02-28T01:01:52;2.40;;;2.13;;
76433;SDS011;65265;53.200;6.080;2023-02-28T01:06:44;2.83;;;2.58;;
76433;SDS011;65265;53.200;6.080;2023-02-28T01:11:36;2.65;;;2.30;;
76433;SDS011;65265;53.200;6.080;2023-02-28T01:16:29;3.47;;;2.55;;
76433;SDS011;65265;53.200;6.080;2023-02-28T01:21:24;2.40;;;0.85;;
76433;SDS011;65265;53.200;6.080;2023-02-28T01:26:17;7.47;;;3.20;;
76433;SDS011;65265;53.200;6.080;2023-02-28T01:31:11;2.30;;;2.10;;
76433;SDS011;65265;53.200;6.080;2023-02-28T01:36:04;5.82;;;2.50;;
76433;SDS011;65265;53.200;6.080;2023-02-28T01:41:02;4.20;;;3.30;;
76433;SDS011;65265;53.200;6.080;2023-02-28T01:45:56;3.63;;;2.83;;
76433;SDS011;65265;53.200;6.080;2023-02-28T01:50:48;4.78;;;2.40;;
76433;SDS011;65265;53.200;6.080;2023-02-28T01:55:42;2.47;;;1.98;;
76433;SDS011;65265;53.200;6.080;2023-02-28T02:00:39;5.43;;;3.40;;
76433;SDS011;65265;53.200;6.080;2023-02-28T02:05:32;3.78;;;3.45;;
76433;SDS011;65265;53.200;6.080;2023-02-28T02:10:27;6.97;;;3.55;;
76433;SDS011;65265;53.200;6.080;2023-02-28T02:15:26;2.08;;;1.90;;
76433;SDS011;65265;53.200;6.080;2023-02-28T02:25:52;4.18;;;2.35;;
76433;SDS011;65265;53.200;6.080;2023-02-28T02:36:21;6.20;;;2.40;;
76433;SDS011;65265;53.200;6.080;2023-02-28T02:41:19;2.42;;;2.03;;
76433;SDS011;65265;53.200;6.080;2023-02-28T02:46:17;3.17;;;2.30;;
76433;SDS011;65265;53.200;6.080;2023-02-28T02:51:13;2.15;;;1.88;;
76433;SDS011;65265;53.200;6.080;2023-02-28T02:56:11;4.30;;;2.97;;
76433;SDS011;65265;53.200;6.080;2023-02-28T03:01:05;6.80;;;3.15;;
76433;SDS011;65265;53.200;6.080;2023-02-28T03:06:00;2.78;;;2.58;;
76433;SDS011;65265;53.200;6.080;2023-02-28T03:10:56;5.05;;;1.63;;
76433;SDS011;65265;53.200;6.080;2023-02-28T03:15:57;4.80;;;1.70;;
76433;SDS011;65265;53.200;6.080;2023-02-28T03:20:59;0.40;;;0.20;;
76433;SDS011;65265;53.200;6.080;2023-02-28T03:26:06;2.28;;;2.08;;
76433;SDS011;65265;53.200;6.080;2023-02-28T03:31:09;4.25;;;3.17;;
76433;SDS011;65265;53.200;6.080;2023-02-28T03:36:11;2.88;;;2.67;;
76433;SDS011;65265;53.200;6.080;2023-02-28T03:41:09;1.20;;;1.10;;
76433;SDS011;65265;53.200;6.080;2023-02-28T03:46:08;2.63;;;1.65;;
76433;SDS011;65265;53.200;6.080;2023-02-28T03:51:04;3.22;;;2.13;;
76433;SDS011;65265;53.200;6.080;2023-02-28T03:56:05;2.70;;;1.88;;
76433;SDS011;65265;53.200;6.080;2023-02-28T04:01:04;1.85;;;1.75;;
76433;SDS011;65265;53.200;6.080;2023-02-28T04:06:04;2.95;;;1.40;;
76433;SDS011;65265;53.200;6.080;2023-02-28T04:15:59;5.20;;;3.13;;
76433;SDS011;65265;53.200;6.080;2023-02-28T04:20:53;2.80;;;1.98;;
76433;SDS011;65265;53.200;6.080;2023-02-28T04:25:46;3.17;;;2.90;;
76433;SDS011;65265;53.200;6.080;2023-02-28T04:30:38;2.67;;;2.47;;
76433;SDS011;65265;53.200;6.080;2023-02-28T04:35:30;4.85;;;2.95;;
76433;SDS011;65265;53.200;6.080;2023-02-28T04:40:25;3.03;;;2.28;;
76433;SDS011;65265;53.200;6.080;2023-02-28T04:45:17;3.78;;;3.03;;
76433;SDS011;65265;53.200;6.080;2023-02-28T04:50:10;1.98;;;1.77;;
76433;SDS011;65265;53.200;6.080;2023-02-28T04:55:03;4.07;;;2.58;;
76433;SDS011;65265;53.200;6.080;2023-02-28T04:59:57;3.47;;;3.22;;
76433;SDS011;65265;53.200;6.080;2023-02-28T05:04:50;2.30;;;2.05;;
76433;SDS011;65265;53.200;6.080;2023-02-28T05:09:42;7.95;;;4.05;;
76433;SDS011;65265;53.200;6.080;2023-02-28T05:14:33;4.20;;;3.80;;
76433;SDS011;65265;53.200;6.080;2023-02-28T05:19:27;4.85;;;2.78;;
76433;SDS011;65265;53.200;6.080;2023-02-28T05:24:19;5.15;;;4.68;;
76433;SDS011;65265;53.200;6.080;2023-02-28T05:29:13;7.20;;;5.22;;
76433;SDS011;65265;53.200;6.080;2023-02-28T05:34:05;6.85;;;5.60;;
76433;SDS011;65265;53.200;6.080;2023-02-28T05:38:59;10.20;;;5.80;;
76433;SDS011;65265;53.200;6.080;2023-02-28T05:43:51;7.97;;;5.85;;
76433;SDS011;65265;53.200;6.080;2023-02-28T05:48:45;4.82;;;3.75;;
76433;SDS011;65265;53.200;6.080;2023-02-28T05:53:38;4.38;;;3.90;;
76433;SDS011;65265;53.200;6.080;2023-02-28T05:58:31;4.60;;;4.20;;
76433;SDS011;65265;53.200;6.080;2023-02-28T06:03:24;3.65;;;3.15;;
76433;SDS011;65265;53.200;6.080;2023-02-28T06:08:17;5.20;;;4.25;;
76433;SDS011;65265;53.200;6.080;2023-02-28T06:13:10;5.78;;;5.07;;
76433;SDS011;65265;53.200;6.080;2023-02-28T06:18:05;5.53;;;4.30;;
76433;SDS011;65265;53.200;6.080;2023-02-28T06:22:58;4.43;;;4.03;;
76433;SDS011;65265;53.200;6.080;2023-02-28T06:27:51;4.53;;;2.75;;
76433;SDS011;65265;53.200;6.080;2023-02-28T06:32:43;6.65;;;4.97;;
76433;SDS011;65265;53.200;6.080;2023-02-28T06:37:37;5.50;;;4.45;;
76433;SDS011;65265;53.200;6.080;2023-02-28T06:42:28;5.10;;;3.83;;
76433;SDS011;65265;53.200;6.080;2023-02-28T06:47:21;5.88;;;5.28;;
76433;SDS011;65265;53.200;6.080;2023-02-28T06:52:13;6.35;;;4.50;;
76433;SDS011;65265;53.200;6.080;2023-02-28T06:57:06;4.55;;;3.30;;
76433;SDS011;65265;53.200;6.080;2023-02-28T07:01:58;8.20;;;4.88;;
76433;SDS011;65265;53.200;6.080;2023-02-28T07:06:50;6.78;;;5.53;;
76433;SDS011;65265;53.200;6.080;2023-02-28T07:11:41;8.75;;;6.65;;
76433;SDS011;65265;53.200;6.080;2023-02-28T07:16:35;10.77;;;7.22;;
76433;SDS011;65265;53.200;6.080;2023-02-28T07:21:29;9.90;;;6.97;;
76433;SDS011;65265;53.200;6.080;2023-02-28T07:26:20;9.00;;;5.63;;
76433;SDS011;65265;53.200;6.080;2023-02-28T07:31:12;9.80;;;8.82;;
76433;SDS011;65265;53.200;6.080;2023-02-28T07:36:07;9.80;;;6.82;;
76433;SDS011;65265;53.200;6.080;2023-02-28T07:41:04;8.95;;;6.35;;
76433;SDS011;65265;53.200;6.080;2023-02-28T07:45:55;10.75;;;8.90;;
76433;SDS011;65265;53.200;6.080;2023-02-28T07:50:54;10.68;;;7.22;;
76433;SDS011;65265;53.200;6.080;2023-02-28T07:55:49;12.70;;;8.00;;
76433;SDS011;65265;53.200;6.080;2023-02-28T08:00:41;9.95;;;7.18;;
76433;SDS011;65265;53.200;6.080;2023-02-28T08:05:38;17.02;;;11.93;;
76433;SDS011;65265;53.200;6.080;2023-02-28T08:10:31;13.43;;;8.85;;
76433;SDS011;65265;53.200;6.080;2023-02-28T08:15:24;15.52;;;11.35;;
76433;SDS011;65265;53.200;6.080;2023-02-28T08:25:09;15.07;;;9.77;;
76433;SDS011;65265;53.200;6.080;2023-02-28T08:30:01;15.48;;;8.77;;
76433;SDS011;65265;53.200;6.080;2023-02-28T08:34:57;12.95;;;10.38;;
76433;SDS011;65265;53.200;6.080;2023-02-28T08:39:49;17.75;;;11.75;;
76433;SDS011;65265;53.200;6.080;2023-02-28T08:44:41;13.98;;;9.45;;
76433;SDS011;65265;53.200;6.080;2023-02-28T08:49:32;14.35;;;10.13;;
76433;SDS011;65265;53.200;6.080;2023-02-28T08:54:26;15.60;;;10.95;;
76433;SDS011;65265;53.200;6.080;2023-02-28T08:59:20;18.27;;;11.07;;
76433;SDS011;65265;53.200;6.080;2023-02-28T09:04:12;15.70;;;9.95;;
76433;SDS011;65265;53.200;6.080;2023-02-28T09:09:03;13.30;;;8.60;;
76433;SDS011;65265;53.200;6.080;2023-02-28T09:13:59;16.27;;;9.95;;
76433;SDS011;65265;53.200;6.080;2023-02-28T09:18:53;14.50;;;10.05;;
76433;SDS011;65265;53.200;6.080;2023-02-28T09:23:46;13.32;;;9.55;;
76433;SDS011;65265;53.200;6.080;2023-02-28T09:28:39;13.50;;;8.68;;
76433;SDS011;65265;53.200;6.080;2023-02-28T09:33:33;14.68;;;10.23;;
76433;SDS011;65265;53.200;6.080;2023-02-28T09:38:26;12.82;;;8.75;;
76433;SDS011;65265;53.200;6.080;2023-02-28T09:43:21;13.25;;;8.18;;
76433;SDS011;65265;53.200;6.080;2023-02-28T09:48:16;12.85;;;8.82;;
76433;SDS011;65265;53.200;6.080;2023-02-28T09:53:18;11.65;;;8.38;;
76433;SDS011;65265;53.200;6.080;2023-02-28T09:58:18;15.10;;;9.23;;
76433;SDS011;65265;53.200;6.080;2023-02-28T10:08:36;13.60;;;9.57;;
76433;SDS011;65265;53.200;6.080;2023-02-28T10:13:36;12.60;;;8.43;;
76433;SDS011;65265;53.200;6.080;2023-02-28T10:18:38;11.98;;;7.50;;
76433;SDS011;65265;53.200;6.080;2023-02-28T10:23:37;9.65;;;5.53;;
76433;SDS011;65265;53.200;6.080;2023-02-28T10:28:29;9.35;;;6.30;;
76433;SDS011;65265;53.200;6.080;2023-02-28T10:33:23;8.07;;;5.93;;
76433;SDS011;65265;53.200;6.080;2023-02-28T10:38:17;9.65;;;6.47;;
76433;SDS011;65265;53.200;6.080;2023-02-28T10:43:21;6.43;;;5.05;;
76433;SDS011;65265;53.200;6.080;2023-02-28T10:48:26;7.93;;;6.30;;
76433;SDS011;65265;53.200;6.080;2023-02-28T10:53:25;8.82;;;5.35;;
76433;SDS011;65265;53.200;6.080;2023-02-28T10:58:27;9.55;;;8.02;;
76433;SDS011;65265;53.200;6.080;2023-02-28T11:03:23;6.60;;;5.90;;
76433;SDS011;65265;53.200;6.080;2023-02-28T11:08:20;4.40;;;3.60;;
76433;SDS011;65265;53.200;6.080;2023-02-28T11:13:16;5.18;;;3.83;;
76433;SDS011;65265;53.200;6.080;2023-02-28T11:18:19;5.43;;;3.47;;
76433;SDS011;65265;53.200;6.080;2023-02-28T11:23:15;6.93;;;4.15;;
76433;SDS011;65265;53.200;6.080;2023-02-28T11:28:22;8.23;;;3.85;;
76433;SDS011;65265;53.200;6.080;2023-02-28T11:33:32;7.55;;;5.72;;
76433;SDS011;65265;53.200;6.080;2023-02-28T11:38:32;7.20;;;4.80;;
76433;SDS011;65265;53.200;6.080;2023-02-28T11:43:30;6.30;;;3.72;;
76433;SDS011;65265;53.200;6.080;2023-02-28T11:48:40;5.70;;;4.13;;
76433;SDS011;65265;53.200;6.080;2023-02-28T11:53:47;6.22;;;4.18;;
76433;SDS011;65265;53.200;6.080;2023-02-28T11:58:52;5.35;;;4.20;;
76433;SDS011;65265;53.200;6.080;2023-02-28T12:04:03;5.60;;;4.95;;
76433;SDS011;65265;53.200;6.080;2023-02-28T12:09:05;3.83;;;3.47;;
76433;SDS011;65265;53.200;6.080;2023-02-28T12:14:31;5.25;;;2.83;;
76433;SDS011;65265;53.200;6.080;2023-02-28T12:19:48;4.25;;;3.83;;
76433;SDS011;65265;53.200;6.080;2023-02-28T12:24:52;3.97;;;3.15;;
76433;SDS011;65265;53.200;6.080;2023-02-28T12:30:12;4.10;;;3.08;;
76433;SDS011;65265;53.200;6.080;2023-02-28T12:35:17;4.40;;;3.78;;
76433;SDS011;65265;53.200;6.080;2023-02-28T12:40:14;4.55;;;3.45;;
76433;SDS011;65265;53.200;6.080;2023-02-28T12:45:12;3.22;;;2.83;;
76433;SDS011;65265;53.200;6.080;2023-02-28T12:50:10;4.80;;;3.42;;
76433;SDS011;65265;53.200;6.080;2023-02-28T12:55:06;5.97;;;4.82;;
76433;SDS011;65265;53.200;6.080;2023-02-28T13:00:10;3.53;;;3.22;;
76433;SDS011;65265;53.200;6.080;2023-02-28T13:10:41;4.95;;;4.53;;
76433;SDS011;65265;53.200;6.080;2023-02-28T13:15:36;3.90;;;3.08;;
76433;SDS011;65265;53.200;6.080;2023-02-28T13:31:04;3.47;;;2.97;;
76433;SDS011;65265;53.200;6.080;2023-02-28T13:36:06;4.30;;;2.65;;
76433;SDS011;65265;53.200;6.080;2023-02-28T13:46:34;4.78;;;3.40;;
76433;SDS011;65265;53.200;6.080;2023-02-28T13:51:47;5.05;;;4.07;;
76433;SDS011;65265;53.200;6.080;2023-02-28T13:56:43;4.57;;;3.28;;
76433;SDS011;65265;53.200;6.080;2023-02-28T14:01:51;4.75;;;3.97;;
76433;SDS011;65265;53.200;6.080;2023-02-28T14:06:54;3.60;;;2.95;;
76433;SDS011;65265;53.200;6.080;2023-02-28T14:11:48;2.72;;;2.30;;
76433;SDS011;65265;53.200;6.080;2023-02-28T14:16:41;3.83;;;3.42;;
76433;SDS011;65265;53.200;6.080;2023-02-28T14:21:40;4.13;;;2.45;;
76433;SDS011;65265;53.200;6.080;2023-02-28T14:32:11;3.80;;;3.13;;
76433;SDS011;65265;53.200;6.080;2023-02-28T14:42:28;3.92;;;2.95;;
76433;SDS011;65265;53.200;6.080;2023-02-28T14:47:23;4.22;;;3.28;;
76433;SDS011;65265;53.200;6.080;2023-02-28T14:52:22;4.72;;;3.05;;
76433;SDS011;65265;53.200;6.080;2023-02-28T14:57:21;3.72;;;3.08;;
76433;SDS011;65265;53.200;6.080;2023-02-28T15:02:19;5.78;;;3.42;;
76433;SDS011;65265;53.200;6.080;2023-02-28T15:07:13;3.70;;;2.75;;
76433;SDS011;65265;53.200;6.080;2023-02-28T15:12:15;4.47;;;4.07;;
76433;SDS011;65265;53.200;6.080;2023-02-28T15:17:07;4.65;;;4.25;;
76433;SDS011;65265;53.200;6.080;2023-02-28T15:22:11;4.95;;;3.75;;
76433;SDS011;65265;53.200;6.080;2023-02-28T15:27:18;5.72;;;4.78;;
76433;SDS011;65265;53.200;6.080;2023-02-28T15:32:24;3.58;;;3.28;;
76433;SDS011;65265;53.200;6.080;2023-02-28T15:37:29;4.85;;;3.80;;
76433;SDS011;65265;53.200;6.080;2023-02-28T15:42:33;3.97;;;3.60;;
76433;SDS011;65265;53.200;6.080;2023-02-28T15:47:25;4.10;;;3.22;;
76433;SDS011;65265;53.200;6.080;2023-02-28T15:52:21;5.35;;;4.53;;
76433;SDS011;65265;53.200;6.080;2023-02-28T15:57:23;5.53;;;4.78;;
76433;SDS011;65265;53.200;6.080;2023-02-28T16:02:22;5.28;;;3.90;;
76433;SDS011;65265;53.200;6.080;2023-02-28T16:07:22;3.92;;;3.28;;
76433;SDS011;65265;53.200;6.080;2023-02-28T16:12:14;5.63;;;3.90;;
76433;SDS011;65265;53.200;6.080;2023-02-28T16:22:09;8.82;;;5.72;;
76433;SDS011;65265;53.200;6.080;2023-02-28T16:27:01;6.30;;;4.60;;
76433;SDS011;65265;53.200;6.080;2023-02-28T16:31:54;6.13;;;4.60;;
76433;SDS011;65265;53.200;6.080;2023-02-28T16:36:47;5.53;;;5.03;;
76433;SDS011;65265;53.200;6.080;2023-02-28T16:41:45;5.97;;;4.78;;
76433;SDS011;65265;53.200;6.080;2023-02-28T16:46:39;7.50;;;5.22;;
76433;SDS011;65265;53.200;6.080;2023-02-28T16:51:32;6.53;;;4.20;;
76433;SDS011;65265;53.200;6.080;2023-02-28T16:56:24;9.68;;;5.13;;
76433;SDS011;65265;53.200;6.080;2023-02-28T17:01:19;7.95;;;5.68;;
76433;SDS011;65265;53.200;6.080;2023-02-28T17:06:16;7.90;;;5.95;;
76433;SDS011;65265;53.200;6.080;2023-02-28T17:16:03;9.27;;;7.55;;
76433;SDS011;65265;53.200;6.080;2023-02-28T17:20:58;10.18;;;7.05;;
76433;SDS011;65265;53.200;6.080;2023-02-28T17:25:50;10.27;;;6.97;;
76433;SDS011;65265;53.200;6.080;2023-02-28T17:30:44;8.77;;;6.72;;
76433;SDS011;65265;53.200;6.080;2023-02-28T17:35:38;8.60;;;5.90;;
76433;SDS011;65265;53.200;6.080;2023-02-28T17:40:33;6.07;;;4.60;;
76433;SDS011;65265;53.200;6.080;2023-02-28T17:45:26;5.35;;;2.97;;
76433;SDS011;65265;53.200;6.080;2023-02-28T17:50:20;5.72;;;4.68;;
76433;SDS011;65265;53.200;6.080;2023-02-28T17:55:13;4.72;;;4.15;;
76433;SDS011;65265;53.200;6.080;2023-02-28T18:00:10;9.38;;;7.57;;
76433;SDS011;65265;53.200;6.080;2023-02-28T18:05:06;13.05;;;8.77;;
76433;SDS011;65265;53.200;6.080;2023-02-28T18:09:59;12.45;;;9.70;;
76433;SDS011;65265;53.200;6.080;2023-02-28T18:14:53;14.20;;;9.48;;
76433;SDS011;65265;53.200;6.080;2023-02-28T18:19:47;11.02;;;9.18;;
76433;SDS011;65265;53.200;6.080;2023-02-28T18:24:39;13.00;;;9.52;;
76433;SDS011;65265;53.200;6.080;2023-02-28T18:29:32;9.13;;;6.57;;
76433;SDS011;65265;53.200;6.080;2023-02-28T18:34:24;8.85;;;7.05;;
76433;SDS011;65265;53.200;6.080;2023-02-28T18:39:19;9.27;;;5.72;;
76433;SDS011;65265;53.200;6.080;2023-02-28T18:44:11;17.52;;;12.32;;
76433;SDS011;65265;53.200;6.080;2023-02-28T18:49:04;12.27;;;9.85;;
76433;SDS011;65265;53.200;6.080;2023-02-28T18:53:57;7.78;;;6.63;;
76433;SDS011;65265;53.200;6.080;2023-02-28T18:58:53;9.38;;;6.80;;
76433;SDS011;65265;53.200;6.080;2023-02-28T19:03:46;13.75;;;8.15;;
76433;SDS011;65265;53.200;6.080;2023-02-28T19:08:40;10.82;;;7.60;;
76433;SDS011;65265;53.200;6.080;2023-02-28T19:13:32;9.38;;;7.50;;
76433;SDS011;65265;53.200;6.080;2023-02-28T19:18:27;12.73;;;8.00;;
76433;SDS011;65265;53.200;6.080;2023-02-28T19:23:19;10.50;;;6.47;;
76433;SDS011;65265;53.200;6.080;2023-02-28T19:28:13;10.15;;;9.13;;
76433;SDS011;65265;53.200;6.080;2023-02-28T19:33:05;7.68;;;6.10;;
76433;SDS011;65265;53.200;6.080;2023-02-28T19:37:59;17.42;;;8.15;;
76433;SDS011;65265;53.200;6.080;2023-02-28T19:42:51;14.85;;;9.15;;
76433;SDS011;65265;53.200;6.080;2023-02-28T19:47:43;9.85;;;5.95;;
76433;SDS011;65265;53.200;6.080;2023-02-28T19:52:37;9.32;;;6.07;;
76433;SDS011;65265;53.200;6.080;2023-02-28T19:57:34;7.78;;;5.63;;
76433;SDS011;65265;53.200;6.080;2023-02-28T20:02:27;5.53;;;4.53;;
76433;SDS011;65265;53.200;6.080;2023-02-28T20:07:19;8.18;;;5.78;;
76433;SDS011;65265;53.200;6.080;2023-02-28T20:12:12;8.35;;;6.22;;
76433;SDS011;65265;53.200;6.080;2023-02-28T20:17:07;13.32;;;7.65;;
76433;SDS011;65265;53.200;6.080;2023-02-28T20:26:52;6.70;;;4.75;;
76433;SDS011;65265;53.200;6.080;2023-02-28T20:31:44;12.55;;;7.93;;
76433;SDS011;65265;53.200;6.080;2023-02-28T20:36:38;9.05;;;7.28;;
76433;SDS011;65265;53.200;6.080;2023-02-28T20:41:31;8.32;;;6.68;;
76433;SDS011;65265;53.200;6.080;2023-02-28T20:46:23;5.47;;;4.88;;
76433;SDS011;65265;53.200;6.080;2023-02-28T20:51:15;6.13;;;5.53;;
76433;SDS011;65265;53.200;6.080;2023-02-28T20:56:10;9.40;;;7.38;;
76433;SDS011;65265;53.200;6.080;2023-02-28T21:01:06;6.70;;;3.95;;
76433;SDS011;65265;53.200;6.080;2023-02-28T21:10:58;8.65;;;5.88;;
76433;SDS011;65265;53.200;6.080;2023-02-28T21:15:53;5.53;;;4.40;;
76433;SDS011;65265;53.200;6.080;2023-02-28T21:20:45;10.27;;;5.13;;
76433;SDS011;65265;53.200;6.080;2023-02-28T21:25:38;9.35;;;8.13;;
76433;SDS011;65265;53.200;6.080;2023-02-28T21:30:31;8.02;;;6.90;;
76433;SDS011;65265;53.200;6.080;2023-02-28T21:35:25;11.55;;;5.78;;
76433;SDS011;65265;53.200;6.080;2023-02-28T21:40:18;9.90;;;6.18;;
76433;SDS011;65265;53.200;6.080;2023-02-28T21:45:11;12.32;;;7.63;;
76433;SDS011;65265;53.200;6.080;2023-02-28T21:50:05;8.55;;;6.30;;
76433;SDS011;65265;53.200;6.080;2023-02-28T21:55:02;8.15;;;4.97;;
76433;SDS011;65265;53.200;6.080;2023-02-28T21:59:55;6.13;;;4.72;;
76433;SDS011;65265;53.200;6.080;2023-02-28T22:04:48;6.30;;;5.70;;
76433;SDS011;65265;53.200;6.080;2023-02-28T22:09:41;5.38;;;4.63;;
76433;SDS011;65265;53.200;6.080;2023-02-28T22:14:36;5.47;;;4.75;;
76433;SDS011;65265;53.200;6.080;2023-02-28T22:19:29;4.45;;;3.80;;
76433;SDS011;65265;53.200;6.080;2023-02-28T22:24:22;8.45;;;6.25;;
76433;SDS011;65265;53.200;6.080;2023-02-28T22:29:15;10.68;;;9.20;;
76433;SDS011;65265;53.200;6.080;2023-02-28T22:34:10;6.68;;;6.15;;
76433;SDS011;65265;53.200;6.080;2023-02-28T22:39:02;4.68;;;4.28;;
76433;SDS011;65265;53.200;6.080;2023-02-28T22:43:56;6.32;;;5.53;;
76433;SDS011;65265;53.200;6.080;2023-02-28T22:48:51;9.35;;;8.35;;
76433;SDS011;65265;53.200;6.080;2023-02-28T22:53:46;6.75;;;5.45;;
76433;SDS011;65265;53.200;6.080;2023-02-28T22:58:41;6.88;;;5.13;;
76433;SDS011;65265;53.200;6.080;2023-02-28T23:03:34;5.07;;;3.92;;
76433;SDS011;65265;53.200;6.080;2023-02-28T23:08:27;4.63;;;4.13;;
76433;SDS011;65265;53.200;6.080;2023-02-28T23:13:21;5.68;;;5.18;;
76433;SDS011;65265;53.200;6.080;2023-02-28T23:18:14;9.05;;;5.93;;
76433;SDS011;65265;53.200;6.080;2023-02-28T23:23:06;6.40;;;5.45;;
76433;SDS011;65265;53.200;6.080;2023-02-28T23:28:00;6.15;;;2.97;;
76433;SDS011;65265;53.200;6.080;2023-02-28T23:32:56;9.57;;;7.75;;
76433;SDS011;65265;53.200;6.080;2023-02-28T23:37:48;8.98;;;6.32;;
76433;SDS011;65265;53.200;6.080;2023-02-28T23:42:40;16.40;;;8.98;;
76433;SDS011;65265;53.200;6.080;2023-02-28T23:47:33;10.07;;;8.95;;
76433;SDS011;65265;53.200;6.080;2023-02-28T23:52:32;8.18;;;7.18;;
76433;SDS011;65265;53.200;6.080;2023-02-28T23:57:24;8.45;;;7.60;;
